Birigui, Brazil
Current Conditions -  °F | °C
As of 8:00 AM on Sunday 25 Jan 2015 (Local Time) from SBSR Reporting Station
Light Rain Light Rain  
Wind Chill: 70°   Ceiling: 7000
Heat Index: 70°   Visibility: 4mi
Dew Point: 66°   Wind: 10mph
Humidity: 88%   Direction: 20°NNE
Pressure: 29.97"   Gusts: NA
Location:  21.29°S, 50.34°W
Report Text: SBSR 251000Z 02009KT 6000 -RA SCT012 BKN070 21/19 Q1015
Loading
Personal Weather Stations






























Interactive Weather Map New forecast layout! Learn more

10-Day Weather Forecast

Advertisements
Track Severe Weather on mobile